Terminal Aerodrome Forecast
Issued by NWS

Home | Current Version | Previous Version | Text Only | Print | Product List | Glossary On
Versions: 1 2 3 4 5 6 7 8 9 10 11 12 13 14 15 16 17
000
FTUS46 KLOX 030522
TAFSBP
TAF
KSBP 030522Z 0306/0406 VRB03KT P6SM BKN150
     FM030800 VRB03KT P6SM OVC006
     FM031700 29005KT P6SM BKN010
     FM032000 30012KT P6SM BKN250
     FM040500 VRB03KT P6SM BKN150=

USA.gov is the U.S. government's official web portal to all federal, state and local government web resources and services.